Time;durP1;ratioP1;P1;durP2;ratioP2;P2;SDS_P1;SDS_P2;PMS_P1;PMS_P2;Temp;Humidity;BMP_temperature;BMP_pressure;BME280_temperature;BME280_humidity;BME280_pressure;Samples;Min_cycle;Max_cycle;Signal;HPM_P1;HPM_P2
2023/04/29 00:01:03;;;;;;;;;;;13.60;99.90;;;;;;5095120;28;19908;-72
2023/04/29 00:03:31;;;;;;;;;;;13.60;99.90;;;;;;5076959;28;19914;-72
2023/04/29 00:06:00;;;;;;;;;;;13.50;99.90;;;;;;5095480;28;19912;-73
2023/04/29 00:08:26;;;;;;;;;;;13.50;99.90;;;;;;5095161;28;20405;-73
2023/04/29 00:10:51;;;;;;;;;;;13.40;99.90;;;;;;5094944;28;19912;-72
2023/04/29 00:13:17;;;;;;;;;;;13.30;99.90;;;;;;5094928;28;19909;-71
2023/04/29 00:15:43;;;;;;;;;;;13.20;99.90;;;;;;5076707;28;20402;-72
2023/04/29 00:18:09;;;;;;;;;;;13.20;99.90;;;;;;5094900;28;20307;-74
2023/04/29 00:20:35;;;;;;;;;;;13.20;99.90;;;;;;5094771;28;19977;-73
2023/04/29 00:23:00;;;;;;;;;;;13.10;99.90;;;;;;5076580;28;19910;-72
2023/04/29 00:25:26;;;;;;;;;;;13.20;99.90;;;;;;5076410;28;19912;-71
2023/04/29 00:27:51;;;;;;;;;;;13.10;99.90;;;;;;5094655;28;19954;-73
2023/04/29 00:30:17;;;;;;;;;;;13.00;99.90;;;;;;5076433;28;19931;-73
2023/04/29 00:32:43;;;;;;;;;;;13.00;99.90;;;;;;5094519;28;19958;-73
2023/04/29 00:35:09;;;;;;;;;;;13.00;99.90;;;;;;5094493;28;19908;-71
2023/04/29 00:37:35;;;;;;;;;;;13.10;99.90;;;;;;5094782;28;19919;-72
2023/04/29 00:40:00;;;;;;;;;;;12.90;99.90;;;;;;5094655;28;20393;-71
2023/04/29 00:42:26;;;;;;;;;;;13.00;99.90;;;;;;5094218;28;19943;-73
2023/04/29 00:44:52;;;;;;;;;;;12.90;99.90;;;;;;5094263;28;20368;-72
2023/04/29 00:47:18;;;;;;;;;;;12.90;99.90;;;;;;5094327;28;19908;-72
2023/04/29 00:49:45;;;;;;;;;;;12.80;99.90;;;;;;5093791;28;20130;-73
2023/04/29 00:52:12;;;;;;;;;;;12.90;99.90;;;;;;5094214;28;20275;-72
2023/04/29 00:54:38;;;;;;;;;;;12.90;99.90;;;;;;5094206;28;19973;-73
2023/04/29 00:57:06;;;;;;;;;;;12.90;99.90;;;;;;5094149;28;20367;-72
2023/04/29 00:59:32;;;;;;;;;;;13.00;99.90;;;;;;5093959;28;19908;-74
2023/04/29 01:01:59;;;;;;;;;;;12.90;99.90;;;;;;5094190;28;19909;-74
2023/04/29 01:04:25;;;;;;;;;;;12.80;99.90;;;;;;5093987;28;19916;-73
2023/04/29 01:06:55;;;;;;;;;;;12.80;99.90;;;;;;5094292;28;19991;-72
2023/04/29 01:09:39;;;;;;;;;;;12.80;99.90;;;;;;5093986;28;19908;-73
2023/04/29 01:12:21;;;;;;;;;;;12.80;99.90;;;;;;5094018;28;19915;-72
2023/04/29 01:14:52;;;;;;;;;;;12.80;99.90;;;;;;5093944;28;19943;-73
2023/04/29 01:17:18;;;;;;;;;;;12.80;99.90;;;;;;5094071;28;19908;-74
2023/04/29 01:19:49;;;;;;;;;;;12.80;99.90;;;;;;5093876;28;19934;-73
2023/04/29 01:22:16;;;;;;;;;;;12.80;99.90;;;;;;5093810;28;19915;-72
2023/04/29 01:24:42;;;;;;;;;;;12.90;99.90;;;;;;5093716;28;19991;-73
2023/04/29 01:27:14;;;;;;;;;;;12.90;99.90;;;;;;5093789;28;19922;-73
2023/04/29 01:29:52;;;;;;;;;;;12.90;99.90;;;;;;5093914;28;19908;-72
2023/04/29 01:32:22;;;;;;;;;;;12.80;99.90;;;;;;5093863;28;20275;-74
2023/04/29 01:34:47;;;;;;;;;;;12.90;99.90;;;;;;5093644;28;19908;-73
2023/04/29 01:37:17;;;;;;;;;;;12.90;99.90;;;;;;5093672;28;19909;-73
2023/04/29 01:39:48;;;;;;;;;;;12.90;99.90;;;;;;5075553;28;19913;-72
2023/04/29 01:42:19;;;;;;;;;;;12.90;99.90;;;;;;5093410;28;19963;-73
2023/04/29 01:44:46;;;;;;;;;;;13.00;99.90;;;;;;5093946;28;20299;-72
2023/04/29 01:47:12;;;;;;;;;;;13.10;99.90;;;;;;5093601;28;19908;-72
2023/04/29 01:49:38;;;;;;;;;;;13.10;99.90;;;;;;5093623;28;19914;-73
2023/04/29 01:52:04;;;;;;;;;;;13.10;99.90;;;;;;5093578;28;20346;-73
2023/04/29 01:54:30;;;;;;;;;;;12.90;99.90;;;;;;5093548;28;19908;-72
2023/04/29 01:56:57;;;;;;;;;;;12.90;99.90;;;;;;5093922;28;20317;-72
2023/04/29 01:59:23;;;;;;;;;;;13.00;99.90;;;;;;5093388;28;19908;-73
2023/04/29 02:01:50;;;;;;;;;;;13.10;99.90;;;;;;5093525;28;19995;-71
2023/04/29 02:04:15;;;;;;;;;;;13.10;99.90;;;;;;5093396;28;19913;-72
2023/04/29 02:06:41;;;;;;;;;;;13.10;99.90;;;;;;5093436;28;19908;-72
2023/04/29 02:09:07;;;;;;;;;;;13.00;99.90;;;;;;5093399;28;20033;-73
2023/04/29 02:11:32;;;;;;;;;;;13.10;99.90;;;;;;5077339;28;19912;-73
2023/04/29 02:13:58;;;;;;;;;;;13.20;99.90;;;;;;5097316;28;19908;-72
2023/04/29 02:16:23;;;;;;;;;;;13.20;99.90;;;;;;5097317;28;19909;-73
2023/04/29 02:18:49;;;;;;;;;;;13.30;99.90;;;;;;5097164;28;20312;-72
2023/04/29 02:21:15;;;;;;;;;;;13.20;99.90;;;;;;5097520;28;19915;-73
2023/04/29 02:23:41;;;;;;;;;;;13.10;99.90;;;;;;5097217;28;20291;-72
2023/04/29 02:26:08;;;;;;;;;;;13.20;99.90;;;;;;5096895;28;20007;-72
2023/04/29 02:28:34;;;;;;;;;;;13.20;99.90;;;;;;5096958;28;19908;-73
2023/04/29 02:31:00;;;;;;;;;;;13.20;99.90;;;;;;5078683;28;19914;-72
2023/04/29 02:33:25;;;;;;;;;;;13.10;99.90;;;;;;5097292;28;19909;-72
2023/04/29 02:35:51;;;;;;;;;;;13.10;99.90;;;;;;5096827;28;20339;-72
2023/04/29 02:38:16;;;;;;;;;;;13.20;99.90;;;;;;5096904;28;20328;-73
2023/04/29 02:40:45;;;;;;;;;;;13.10;99.90;;;;;;5096774;28;19908;-72
2023/04/29 02:48:56;;;;;;;;;;;13.20;99.90;;;;;;4240611;28;20293;-73
2023/04/29 02:51:21;;;;;;;;;;;13.10;99.90;;;;;;4977553;28;19915;-72
2023/04/29 02:53:47;;;;;;;;;;;13.10;99.90;;;;;;4977493;28;19910;-72
2023/04/29 02:56:12;;;;;;;;;;;13.10;99.90;;;;;;4977540;28;19933;-71
2023/04/29 02:58:38;;;;;;;;;;;13.10;99.90;;;;;;4977416;28;19910;-70
2023/04/29 03:01:04;;;;;;;;;;;12.90;99.90;;;;;;4977538;28;19952;-72
2023/04/29 03:03:29;;;;;;;;;;;12.90;99.90;;;;;;4977534;28;20412;-72
2023/04/29 03:05:55;;;;;;;;;;;13.00;99.90;;;;;;4977195;28;19914;-75
2023/04/29 03:08:21;;;;;;;;;;;12.90;99.90;;;;;;4977295;28;19997;-73
2023/04/29 03:10:46;;;;;;;;;;;12.90;99.90;;;;;;4977169;28;19910;-74
2023/04/29 03:13:12;;;;;;;;;;;12.80;99.90;;;;;;4977490;28;19957;-74
2023/04/29 03:15:38;;;;;;;;;;;12.80;99.90;;;;;;4977087;28;20465;-73
2023/04/29 03:18:04;;;;;;;;;;;12.90;99.90;;;;;;4977222;28;19945;-72
2023/04/29 03:20:29;;;;;;;;;;;12.80;99.90;;;;;;4976994;28;19917;-75
2023/04/29 03:22:55;;;;;;;;;;;12.80;99.90;;;;;;4975739;28;19910;-71
2023/04/29 03:25:20;;;;;;;;;;;12.90;99.90;;;;;;4977013;28;19914;-74
2023/04/29 03:27:46;;;;;;;;;;;12.90;99.90;;;;;;4977115;28;19917;-72
2023/04/29 03:30:11;;;;;;;;;;;13.00;99.90;;;;;;4976804;28;20319;-72
2023/04/29 03:32:37;;;;;;;;;;;12.90;99.90;;;;;;4977145;28;19933;-72
2023/04/29 03:35:04;;;;;;;;;;;12.80;99.90;;;;;;4977059;28;19957;-73
2023/04/29 03:37:29;;;;;;;;;;;12.90;99.90;;;;;;4976853;28;19910;-74
2023/04/29 03:39:55;;;;;;;;;;;13.00;99.90;;;;;;4976666;28;19917;-74
2023/04/29 03:42:20;;;;;;;;;;;13.00;1.00;;;;;;4976585;28;19910;-75
2023/04/29 03:44:46;;;;;;;;;;;13.00;1.00;;;;;;4976673;28;19921;-75
2023/04/29 03:47:12;;;;;;;;;;;12.90;99.90;;;;;;4976565;28;20334;-75
2023/04/29 03:49:38;;;;;;;;;;;12.90;1.00;;;;;;4976080;28;20406;-74
2023/04/29 03:52:03;;;;;;;;;;;12.90;99.30;;;;;;4976421;28;19956;-74
2023/04/29 03:54:29;;;;;;;;;;;13.00;99.90;;;;;;4976653;28;20294;-74
2023/04/29 03:56:55;;;;;;;;;;;13.00;99.90;;;;;;4976271;28;20337;-74
2023/04/29 03:59:21;;;;;;;;;;;13.10;99.90;;;;;;4976342;28;19911;-73
2023/04/29 04:01:46;;;;;;;;;;;13.10;99.90;;;;;;4958839;28;19917;-75
2023/04/29 04:04:12;;;;;;;;;;;13.00;99.90;;;;;;4976486;28;19993;-73
2023/04/29 04:06:38;;;;;;;;;;;12.90;1.00;;;;;;4976135;28;20370;-72
2023/04/29 04:09:03;;;;;;;;;;;12.90;99.90;;;;;;4976282;28;19910;-75
2023/04/29 04:11:29;;;;;;;;;;;12.80;99.90;;;;;;4976058;28;20362;-72
2023/04/29 04:13:54;;;;;;;;;;;12.70;99.90;;;;;;4976042;28;19914;-73
2023/04/29 04:16:20;;;;;;;;;;;12.80;99.90;;;;;;4975982;28;19910;-76
2023/04/29 04:18:46;;;;;;;;;;;12.90;99.90;;;;;;4958843;28;19910;-74
2023/04/29 04:21:11;;;;;;;;;;;12.90;99.90;;;;;;4975905;28;19953;-74
2023/04/29 04:23:39;;;;;;;;;;;12.90;99.90;;;;;;4975829;28;19910;-75
2023/04/29 04:26:05;;;;;;;;;;;12.90;99.90;;;;;;4975717;28;19925;-73
2023/04/29 04:28:31;;;;;;;;;;;12.80;99.90;;;;;;4975748;28;19910;-72
2023/04/29 04:30:57;;;;;;;;;;;12.90;99.90;;;;;;4975932;28;20374;-72
2023/04/29 04:33:23;;;;;;;;;;;12.90;99.90;;;;;;4975294;28;19918;-75
2023/04/29 04:35:49;;;;;;;;;;;12.90;99.90;;;;;;4975657;28;19927;-74
2023/04/29 04:38:14;;;;;;;;;;;12.90;99.90;;;;;;4975594;28;19914;-74
2023/04/29 04:40:40;;;;;;;;;;;12.80;1.00;;;;;;4975612;28;20297;-72
2023/04/29 04:43:06;;;;;;;;;;;12.70;99.90;;;;;;4975998;28;19916;-73
2023/04/29 04:45:32;;;;;;;;;;;12.70;99.90;;;;;;4975353;28;19996;-75
2023/04/29 04:47:57;;;;;;;;;;;12.80;99.90;;;;;;4975386;28;20047;-73
2023/04/29 04:50:23;;;;;;;;;;;12.70;99.90;;;;;;4975487;28;19911;-75
2023/04/29 04:52:48;;;;;;;;;;;12.80;99.90;;;;;;4975330;28;20001;-73
2023/04/29 04:55:14;;;;;;;;;;;12.80;99.90;;;;;;4975493;28;19914;-74
2023/04/29 04:57:40;;;;;;;;;;;12.90;99.90;;;;;;4975268;28;19961;-74
2023/04/29 05:00:06;;;;;;;;;;;12.90;99.90;;;;;;4975279;28;20385;-75
2023/04/29 05:02:31;;;;;;;;;;;13.00;99.90;;;;;;4975240;28;20016;-74
2023/04/29 05:04:57;;;;;;;;;;;12.90;99.90;;;;;;4975080;28;19921;-75
2023/04/29 05:07:22;;;;;;;;;;;13.00;99.90;;;;;;4975157;28;19961;-75
2023/04/29 05:09:48;;;;;;;;;;;13.10;99.90;;;;;;4974821;28;19914;-74
2023/04/29 05:12:14;;;;;;;;;;;13.20;99.90;;;;;;4975137;28;20322;-74
2023/04/29 05:14:40;;;;;;;;;;;13.20;99.90;;;;;;4975020;28;20033;-73
2023/04/29 05:17:05;;;;;;;;;;;13.10;99.90;;;;;;4975188;28;19945;-75
2023/04/29 05:20:08;;;;;;;;;;;13.00;99.90;;;;;;4975168;28;19917;-74
2023/04/29 05:22:34;;;;;;;;;;;13.00;99.90;;;;;;4974982;28;19914;-75
2023/04/29 05:25:02;;;;;;;;;;;13.10;99.90;;;;;;4975293;28;19914;-75
2023/04/29 05:27:27;;;;;;;;;;;13.10;99.90;;;;;;4975066;28;19910;-74
2023/04/29 05:29:53;;;;;;;;;;;13.10;99.90;;;;;;4974875;28;20379;-78
2023/04/29 05:32:18;;;;;;;;;;;13.20;99.90;;;;;;4974853;28;19952;-72
2023/04/29 05:34:44;;;;;;;;;;;13.20;99.90;;;;;;4974862;28;19920;-73
2023/04/29 05:37:09;;;;;;;;;;;13.20;99.90;;;;;;4974818;28;20382;-75
2023/04/29 05:39:35;;;;;;;;;;;13.10;99.90;;;;;;4974805;28;19910;-74
2023/04/29 05:42:02;;;;;;;;;;;13.20;99.90;;;;;;4974911;28;19985;-75
2023/04/29 05:44:27;;;;;;;;;;;13.20;99.90;;;;;;4974662;28;20009;-73
2023/04/29 05:46:53;;;;;;;;;;;13.10;99.90;;;;;;4977360;28;20354;-73
2023/04/29 05:49:19;;;;;;;;;;;13.10;99.90;;;;;;4978557;28;20298;-75
2023/04/29 05:51:44;;;;;;;;;;;13.20;99.90;;;;;;4978900;28;19914;-72
2023/04/29 05:54:10;;;;;;;;;;;13.40;99.90;;;;;;4978598;28;20016;-73
2023/04/29 05:56:36;;;;;;;;;;;13.30;99.90;;;;;;4978522;28;19917;-75
2023/04/29 05:59:01;;;;;;;;;;;13.50;99.90;;;;;;4978847;28;19910;-74
2023/04/29 06:01:27;;;;;;;;;;;13.40;99.90;;;;;;4978725;28;19910;-74
2023/04/29 06:03:52;;;;;;;;;;;13.50;99.90;;;;;;4978368;28;19933;-74
2023/04/29 06:06:18;;;;;;;;;;;13.60;99.90;;;;;;4978301;28;19914;-73
2023/04/29 06:08:43;;;;;;;;;;;13.50;99.90;;;;;;4978659;28;19917;-73
2023/04/29 06:11:09;;;;;;;;;;;13.30;99.90;;;;;;4978392;28;19910;-74
2023/04/29 06:13:35;;;;;;;;;;;13.40;99.90;;;;;;4978371;28;19952;-72
2023/04/29 06:16:00;;;;;;;;;;;13.50;99.90;;;;;;4978169;28;20367;-74
2023/04/29 06:18:26;;;;;;;;;;;13.60;99.90;;;;;;4978447;28;19910;-73
2023/04/29 06:20:51;;;;;;;;;;;13.70;99.90;;;;;;4978076;28;19914;-74
2023/04/29 06:23:17;;;;;;;;;;;13.80;99.90;;;;;;4978040;28;20414;-75
2023/04/29 06:25:42;;;;;;;;;;;14.00;99.90;;;;;;4977943;28;20008;-72
2023/04/29 06:28:08;;;;;;;;;;;14.00;99.90;;;;;;4977969;28;20390;-75
2023/04/29 06:30:34;;;;;;;;;;;14.20;99.90;;;;;;4978335;28;19956;-74
2023/04/29 06:32:59;;;;;;;;;;;14.20;99.90;;;;;;4977835;28;19918;-74
2023/04/29 06:35:25;;;;;;;;;;;14.10;99.90;;;;;;4976533;28;19977;-75
2023/04/29 06:37:51;;;;;;;;;;;14.10;99.90;;;;;;4977843;28;19953;-72
2023/04/29 06:40:17;;;;;;;;;;;14.10;99.90;;;;;;4977958;28;19910;-73
2023/04/29 06:42:42;;;;;;;;;;;14.20;99.90;;;;;;4977752;28;20362;-74
2023/04/29 06:45:08;;;;;;;;;;;14.10;99.90;;;;;;4977786;28;19957;-76
2023/04/29 06:47:34;;;;;;;;;;;14.10;99.90;;;;;;4977463;28;19943;-74
2023/04/29 06:49:59;;;;;;;;;;;14.00;99.90;;;;;;4977619;28;19920;-72
2023/04/29 06:52:25;;;;;;;;;;;14.00;99.90;;;;;;4977544;28;19914;-75
2023/04/29 06:54:50;;;;;;;;;;;14.10;99.90;;;;;;4977511;28;19910;-77
2023/04/29 06:57:16;;;;;;;;;;;14.20;99.90;;;;;;4977116;28;19910;-74
2023/04/29 06:59:41;;;;;;;;;;;14.30;99.90;;;;;;4977364;28;19914;-72
2023/04/29 07:02:07;;;;;;;;;;;14.40;99.90;;;;;;4977336;28;20396;-74
2023/04/29 07:04:33;;;;;;;;;;;14.50;99.90;;;;;;4977267;28;19918;-73
2023/04/29 07:06:58;;;;;;;;;;;14.50;99.90;;;;;;4977374;28;19946;-74
2023/04/29 07:09:26;;;;;;;;;;;14.50;99.90;;;;;;4977318;28;19910;-74
2023/04/29 07:11:52;;;;;;;;;;;14.40;99.90;;;;;;4977229;28;19910;-74
2023/04/29 07:14:18;;;;;;;;;;;14.50;99.90;;;;;;4977131;28;19965;-76
2023/04/29 07:16:43;;;;;;;;;;;14.40;99.90;;;;;;4977020;28;19914;-74
2023/04/29 07:19:09;;;;;;;;;;;14.30;99.90;;;;;;4977122;28;19910;-73
2023/04/29 07:21:35;;;;;;;;;;;14.40;99.90;;;;;;4977120;28;19957;-75
2023/04/29 07:24:03;;;;;;;;;;;14.60;99.90;;;;;;4976940;28;20289;-74
2023/04/29 07:26:29;;;;;;;;;;;14.70;99.90;;;;;;4976816;28;20359;-73
2023/04/29 07:28:54;;;;;;;;;;;14.60;99.90;;;;;;4976792;28;19914;-73
2023/04/29 07:31:21;;;;;;;;;;;14.60;99.90;;;;;;4976725;28;19910;-73
2023/04/29 07:33:47;;;;;;;;;;;14.60;99.90;;;;;;4976762;28;19917;-72
2023/04/29 07:36:13;;;;;;;;;;;14.60;99.90;;;;;;4959576;28;19938;-74
2023/04/29 07:38:39;;;;;;;;;;;14.70;99.90;;;;;;4976675;28;19933;-74
2023/04/29 07:41:04;;;;;;;;;;;14.80;99.90;;;;;;4976598;28;19948;-74
2023/04/29 07:43:30;;;;;;;;;;;14.90;99.90;;;;;;4976552;28;19949;-73
2023/04/29 07:45:55;;;;;;;;;;;15.00;99.90;;;;;;4976593;28;19914;-73
2023/04/29 07:48:21;;;;;;;;;;;15.00;99.90;;;;;;4976645;28;19922;-73
2023/04/29 07:50:47;;;;;;;;;;;15.10;99.90;;;;;;4976712;28;19953;-75
2023/04/29 07:53:14;;;;;;;;;;;15.10;99.90;;;;;;4976379;28;19910;-75
2023/04/29 07:55:40;;;;;;;;;;;15.20;99.90;;;;;;4958999;28;20053;-74
2023/04/29 07:58:06;;;;;;;;;;;15.40;99.90;;;;;;4976313;28;19997;-75
2023/04/29 08:00:33;;;;;;;;;;;15.40;99.90;;;;;;4976165;28;20425;-74
2023/04/29 08:02:58;;;;;;;;;;;15.50;99.90;;;;;;4976191;28;19950;-73
2023/04/29 08:05:24;;;;;;;;;;;15.50;99.90;;;;;;4976010;28;20343;-71
2023/04/29 08:07:50;;;;;;;;;;;15.60;99.90;;;;;;4976207;28;19925;-71
2023/04/29 08:10:16;;;;;;;;;;;15.60;99.90;;;;;;4975828;28;19911;-75
2023/04/29 08:12:45;;;;;;;;;;;15.40;99.90;;;;;;4976091;28;19925;-76
2023/04/29 08:15:10;;;;;;;;;;;15.40;99.90;;;;;;4975975;28;19956;-75
2023/04/29 08:17:36;;;;;;;;;;;15.70;99.90;;;;;;4976319;28;19946;-74
2023/04/29 08:20:02;;;;;;;;;;;15.60;99.90;;;;;;4975883;28;20263;-76
2023/04/29 08:22:27;;;;;;;;;;;15.70;99.90;;;;;;4976080;28;19932;-73
2023/04/29 08:24:53;;;;;;;;;;;15.60;99.90;;;;;;4975873;28;19914;-73
2023/04/29 08:27:20;;;;;;;;;;;15.40;99.90;;;;;;4975773;28;19910;-76
2023/04/29 08:29:46;;;;;;;;;;;15.50;99.90;;;;;;4975659;28;19917;-74
2023/04/29 08:32:11;;;;;;;;;;;15.60;99.90;;;;;;4975830;28;19910;-74
2023/04/29 08:34:37;;;;;;;;;;;15.60;99.90;;;;;;4975627;28;19914;-74
2023/04/29 08:37:03;;;;;;;;;;;15.70;99.90;;;;;;4975538;28;20267;-74
2023/04/29 08:39:31;;;;;;;;;;;15.90;99.90;;;;;;4975551;28;20367;-75
2023/04/29 08:41:57;;;;;;;;;;;16.00;99.90;;;;;;4975511;28;19918;-76
2023/04/29 08:44:26;;;;;;;;;;;16.00;99.90;;;;;;4975539;28;19950;-77
2023/04/29 08:46:53;;;;;;;;;;;15.90;99.90;;;;;;4975442;28;20290;-75
2023/04/29 08:49:18;;;;;;;;;;;15.80;99.90;;;;;;4975067;28;20385;-75
2023/04/29 08:51:44;;;;;;;;;;;15.70;99.90;;;;;;4975388;28;19910;-75
2023/04/29 08:54:10;;;;;;;;;;;15.80;99.90;;;;;;4975287;28;20374;-74
2023/04/29 08:56:36;;;;;;;;;;;15.70;99.90;;;;;;4975266;28;19910;-73
2023/04/29 08:59:03;;;;;;;;;;;15.80;99.90;;;;;;4975284;28;19914;-73
2023/04/29 09:01:29;;;;;;;;;;;15.90;99.90;;;;;;4975201;28;19957;-72
2023/04/29 09:03:55;;;;;;;;;;;16.10;99.90;;;;;;4975221;28;19938;-74
2023/04/29 09:06:21;;;;;;;;;;;16.10;99.90;;;;;;4957648;28;19965;-73
2023/04/29 09:08:47;;;;;;;;;;;15.90;99.90;;;;;;4975256;28;19910;-77
2023/04/29 09:11:13;;;;;;;;;;;16.10;99.90;;;;;;4975060;28;19989;-73
2023/04/29 09:13:38;;;;;;;;;;;16.30;99.90;;;;;;4975199;28;19910;-74
2023/04/29 09:16:10;;;;;;;;;;;16.40;99.90;;;;;;4975029;28;20069;-73
2023/04/29 09:18:45;;;;;;;;;;;16.40;99.90;;;;;;4975172;28;19957;-71
2023/04/29 09:21:18;;;;;;;;;;;16.50;99.90;;;;;;4974880;28;20005;-78
2023/04/29 09:23:44;;;;;;;;;;;16.40;99.90;;;;;;4974944;28;19910;-74
2023/04/29 09:26:09;;;;;;;;;;;16.40;99.90;;;;;;4974834;28;19915;-76
2023/04/29 09:28:35;;;;;;;;;;;16.50;99.90;;;;;;4975086;28;19922;-74
2023/04/29 09:31:05;;;;;;;;;;;16.90;99.90;;;;;;4974980;28;19911;-72
2023/04/29 09:33:31;;;;;;;;;;;17.60;99.90;;;;;;4974846;28;19910;-75
2023/04/29 09:35:56;;;;;;;;;;;17.90;99.90;;;;;;4974819;28;20271;-72
2023/04/29 09:38:22;;;;;;;;;;;18.00;99.90;;;;;;4974744;28;19917;-74
2023/04/29 09:40:47;;;;;;;;;;;17.90;99.90;;;;;;4974781;28;19910;-72
2023/04/29 09:43:15;;;;;;;;;;;17.80;99.90;;;;;;4974726;28;19914;-74
2023/04/29 09:45:41;;;;;;;;;;;17.70;99.90;;;;;;4974562;28;19914;-74
2023/04/29 09:48:08;;;;;;;;;;;17.70;99.90;;;;;;4974549;28;19985;-75
2023/04/29 09:50:37;;;;;;;;;;;17.50;99.90;;;;;;4974602;28;19965;-73
2023/04/29 09:53:04;;;;;;;;;;;17.70;99.90;;;;;;4974771;28;19917;-72
2023/04/29 09:55:30;;;;;;;;;;;17.80;99.90;;;;;;4957334;28;20005;-74
2023/04/29 09:57:56;;;;;;;;;;;18.10;99.90;;;;;;4974960;28;19916;-72
2023/04/29 10:00:22;;;;;;;;;;;18.10;99.90;;;;;;4974726;28;20286;-72
2023/04/29 10:02:51;;;;;;;;;;;17.90;99.90;;;;;;4974526;28;19916;-72
2023/04/29 10:05:17;;;;;;;;;;;17.80;99.90;;;;;;4974447;28;19965;-74
2023/04/29 10:07:45;;;;;;;;;;;18.00;99.90;;;;;;4974499;28;19965;-73
2023/04/29 10:10:12;;;;;;;;;;;18.40;99.90;;;;;;4974653;28;19910;-74
2023/04/29 10:12:39;;;;;;;;;;;18.20;99.90;;;;;;4974387;28;20373;-72
2023/04/29 10:15:05;;;;;;;;;;;17.90;99.90;;;;;;4974520;28;20478;-73
2023/04/29 10:17:37;;;;;;;;;;;17.60;99.90;;;;;;4974435;28;19949;-74
2023/04/29 10:20:06;;;;;;;;;;;17.90;99.90;;;;;;4974475;28;19914;-74
2023/04/29 10:22:41;;;;;;;;;;;18.70;99.90;;;;;;4974521;28;19918;-73
2023/04/29 10:25:09;;;;;;;;;;;19.00;99.90;;;;;;4975872;28;19914;-74
2023/04/29 10:27:36;;;;;;;;;;;19.50;99.90;;;;;;4976343;28;20004;-76
2023/04/29 10:30:03;;;;;;;;;;;19.70;99.90;;;;;;4975985;28;20366;-73
2023/04/29 10:32:29;;;;;;;;;;;19.70;99.90;;;;;;4978170;28;19910;-76
2023/04/29 10:34:57;;;;;;;;;;;20.30;99.90;;;;;;4980017;28;20361;-75
2023/04/29 10:37:22;;;;;;;;;;;21.50;99.90;;;;;;4979503;28;20385;-73
2023/04/29 10:39:58;;;;;;;;;;;22.00;99.90;;;;;;4979921;28;19914;-77
2023/04/29 10:42:33;;;;;;;;;;;22.00;99.90;;;;;;4979588;28;19910;-75
2023/04/29 10:45:19;;;;;;;;;;;21.70;99.90;;;;;;4980098;28;20405;-77
2023/04/29 10:48:00;;;;;;;;;;;21.50;99.90;;;;;;4979330;28;19914;-75
2023/04/29 10:50:30;;;;;;;;;;;22.60;99.90;;;;;;4979309;28;19910;-73
2023/04/29 10:52:56;;;;;;;;;;;23.90;99.90;;;;;;4979478;28;19914;-74
2023/04/29 10:55:22;;;;;;;;;;;25.00;99.90;;;;;;4979143;28;19933;-73
2023/04/29 10:57:48;;;;;;;;;;;24.30;99.90;;;;;;4979652;28;20389;-74
2023/04/29 11:00:26;;;;;;;;;;;26.10;99.90;;;;;;4979200;28;19935;-74
2023/04/29 11:02:53;;;;;;;;;;;25.90;99.90;;;;;;4979194;28;19957;-76
2023/04/29 11:05:28;;;;;;;;;;;26.40;99.90;;;;;;4979660;28;19914;-75
2023/04/29 11:08:08;;;;;;;;;;;25.20;99.90;;;;;;4979666;28;19917;-74
2023/04/29 11:10:37;;;;;;;;;;;24.80;99.90;;;;;;4979208;28;20345;-73
2023/04/29 11:13:21;;;;;;;;;;;24.40;99.90;;;;;;4979329;28;20282;-74
2023/04/29 11:15:47;;;;;;;;;;;24.30;99.90;;;;;;4979527;28;19997;-76
2023/04/29 11:18:13;;;;;;;;;;;24.70;99.90;;;;;;4979146;28;19945;-76
2023/04/29 11:20:57;;;;;;;;;;;25.00;99.90;;;;;;4961691;28;19910;-75
2023/04/29 11:23:24;;;;;;;;;;;26.40;99.90;;;;;;4978914;28;20367;-76
2023/04/29 11:25:49;;;;;;;;;;;29.20;99.90;;;;;;4978533;28;19914;-78
2023/04/29 11:28:15;;;;;;;;;;;31.00;99.90;;;;;;4977762;28;19921;-77
2023/04/29 11:30:41;;;;;;;;;;;33.20;99.90;;;;;;4960489;28;19917;-75
2023/04/29 11:33:07;;;;;;;;;;;31.10;99.90;;;;;;4960741;28;19949;-77
2023/04/29 11:35:33;;;;;;;;;;;31.60;99.90;;;;;;4977778;28;19914;-78
2023/04/29 11:37:59;;;;;;;;;;;32.20;99.90;;;;;;4977899;28;19945;-76
2023/04/29 11:40:24;;;;;;;;;;;29.30;99.90;;;;;;4978410;28;19910;-76
2023/04/29 11:42:50;;;;;;;;;;;27.90;99.90;;;;;;4978304;28;19953;-75
2023/04/29 11:45:16;;;;;;;;;;;31.30;99.90;;;;;;4977442;28;19931;-77
2023/04/29 11:47:43;;;;;;;;;;;34.60;99.90;;;;;;4977122;28;19916;-75
2023/04/29 11:50:09;;;;;;;;;;;36.30;99.90;;;;;;4977538;28;19921;-79
2023/04/29 11:52:36;;;;;;;;;;;35.40;99.90;;;;;;4977319;28;19914;-76
2023/04/29 11:55:02;;;;;;;;;;;35.50;99.90;;;;;;4977396;28;19918;-74
2023/04/29 11:57:28;;;;;;;;;;;35.50;99.90;;;;;;4977761;28;20374;-77
2023/04/29 11:59:54;;;;;;;;;;;33.10;99.90;;;;;;4977440;28;19933;-76
2023/04/29 12:02:30;;;;;;;;;;;36.20;99.90;;;;;;4977216;28;19933;-76
2023/04/29 12:04:56;;;;;;;;;;;38.90;99.90;;;;;;4977682;28;19925;-79
2023/04/29 12:07:22;;;;;;;;;;;37.00;99.90;;;;;;4977433;28;19911;-75
2023/04/29 12:09:48;;;;;;;;;;;32.70;99.90;;;;;;4977618;28;20283;-75
2023/04/29 12:12:14;;;;;;;;;;;30.90;99.90;;;;;;4977571;28;19993;-74
2023/04/29 12:14:41;;;;;;;;;;;35.10;99.90;;;;;;4977474;28;19921;-75
2023/04/29 12:17:07;;;;;;;;;;;38.30;99.90;;;;;;4976979;28;20005;-76
2023/04/29 12:19:33;;;;;;;;;;;39.70;99.90;;;;;;4976920;28;19949;-75
2023/04/29 12:21:59;;;;;;;;;;;39.30;99.90;;;;;;4976950;28;20400;-76
2023/04/29 12:24:25;;;;;;;;;;;36.50;99.90;;;;;;4977000;28;20058;-77
2023/04/29 12:26:52;;;;;;;;;;;36.80;99.90;;;;;;4976844;28;20392;-77
2023/04/29 12:29:21;;;;;;;;;;;35.80;99.90;;;;;;4977358;28;20305;-77
2023/04/29 12:31:46;;;;;;;;;;;32.20;99.90;;;;;;4977449;28;19993;-74
2023/04/29 12:34:12;;;;;;;;;;;31.90;99.90;;;;;;4977081;28;19957;-78
2023/04/29 12:36:40;;;;;;;;;;;33.90;99.90;;;;;;4977367;28;20021;-78
2023/04/29 12:39:09;;;;;;;;;;;31.40;99.90;;;;;;4977171;28;19949;-78
2023/04/29 12:41:35;;;;;;;;;;;31.10;99.90;;;;;;4977227;28;19917;-77
2023/04/29 12:44:03;;;;;;;;;;;31.50;99.90;;;;;;4977161;28;19914;-77
2023/04/29 12:46:33;;;;;;;;;;;31.80;99.90;;;;;;4977034;28;19910;-75
2023/04/29 12:49:01;;;;;;;;;;;31.00;99.90;;;;;;4959151;28;20294;-76
2023/04/29 12:51:26;;;;;;;;;;;33.00;99.90;;;;;;4977088;28;19910;-75
2023/04/29 12:53:52;;;;;;;;;;;32.00;99.90;;;;;;4975597;28;20294;-78
2023/04/29 12:56:17;;;;;;;;;;;30.70;99.90;;;;;;4976554;28;19936;-75
2023/04/29 12:58:43;;;;;;;;;;;33.40;99.90;;;;;;4976595;28;19917;-77
2023/04/29 13:01:08;;;;;;;;;;;38.30;99.90;;;;;;4976109;28;19961;-76
2023/04/29 13:03:34;;;;;;;;;;;41.80;99.90;;;;;;4975391;28;19960;-75
2023/04/29 13:06:01;;;;;;;;;;;38.30;99.90;;;;;;4976248;28;20374;-75
2023/04/29 13:08:27;;;;;;;;;;;35.30;99.90;;;;;;4976625;28;19910;-75
2023/04/29 13:10:52;;;;;;;;;;;31.80;99.90;;;;;;4976876;28;19966;-77
2023/04/29 13:13:18;;;;;;;;;;;34.60;99.90;;;;;;4976860;28;20359;-76
2023/04/29 13:15:43;;;;;;;;;;;31.70;99.90;;;;;;4976642;28;19922;-73
2023/04/29 13:18:09;;;;;;;;;;;36.80;99.90;;;;;;4976154;28;19915;-76
2023/04/29 13:20:35;;;;;;;;;;;39.30;99.90;;;;;;4976133;28;19921;-77
2023/04/29 13:23:00;;;;;;;;;;;37.00;99.90;;;;;;4976253;28;19911;-74
2023/04/29 13:25:26;;;;;;;;;;;36.50;99.90;;;;;;4976210;28;19910;-75
2023/04/29 13:27:51;;;;;;;;;;;35.50;99.90;;;;;;4975968;28;19917;-75
2023/04/29 13:30:17;;;;;;;;;;;39.30;99.90;;;;;;4976204;28;19910;-79
2023/04/29 13:32:43;;;;;;;;;;;40.10;99.90;;;;;;4975896;28;19989;-78
2023/04/29 13:35:08;;;;;;;;;;;39.10;99.90;;;;;;4975876;28;19953;-79
2023/04/29 13:37:34;;;;;;;;;;;37.70;99.90;;;;;;4976095;28;19993;-77
2023/04/29 13:40:00;;;;;;;;;;;38.20;99.90;;;;;;4975800;28;19991;-79
2023/04/29 13:42:25;;;;;;;;;;;35.90;99.90;;;;;;4975745;28;19914;-75
2023/04/29 13:44:52;;;;;;;;;;;34.30;99.90;;;;;;4976064;28;19973;-78
2023/04/29 13:47:18;;;;;;;;;;;35.40;99.90;;;;;;4976029;28;19917;-76
2023/04/29 13:49:43;;;;;;;;;;;35.50;99.90;;;;;;4975175;28;19926;-75
2023/04/29 13:52:09;;;;;;;;;;;34.80;99.90;;;;;;4975701;28;19910;-78
2023/04/29 13:54:35;;;;;;;;;;;34.70;99.90;;;;;;4975579;28;19910;-77
2023/04/29 13:57:04;;;;;;;;;;;34.70;99.90;;;;;;4976055;28;19918;-77
2023/04/29 13:59:33;;;;;;;;;;;34.50;99.90;;;;;;4975877;28;19910;-75
2023/04/29 14:01:58;;;;;;;;;;;33.50;99.90;;;;;;4976071;28;20440;-75
2023/04/29 14:04:25;;;;;;;;;;;34.10;99.90;;;;;;4975800;28;19910;-74
2023/04/29 14:06:50;;;;;;;;;;;34.70;99.90;;;;;;4976836;28;19911;-73
2023/04/29 14:09:17;;;;;;;;;;;34.00;99.90;;;;;;4979722;28;19936;-75
2023/04/29 14:11:43;;;;;;;;;;;34.80;99.90;;;;;;4979692;28;19976;-74
2023/04/29 14:14:08;;;;;;;;;;;33.10;99.90;;;;;;4979493;28;20358;-78
2023/04/29 14:16:34;;;;;;;;;;;31.30;99.90;;;;;;4979923;28;19914;-73
2023/04/29 14:18:59;;;;;;;;;;;30.60;99.90;;;;;;4979889;28;20393;-75